Dalton, New Hampshire
Current Conditions -  °F | °C
As of 12:52 PM on Saturday 25 Oct 2014 (Local Time) from KHIE Reporting Station
Clear Clear  
Wind Chill: 57°   Ceiling: Unl
Heat Index: 57°   Visibility: 10mi
Dew Point: 38°   Wind: 5mph
Humidity: 49%   Direction: 240°WSW
Pressure: 29.66"   Gusts: NA
Location:  44.3374°N, 71.528°W
Report Text: KHIE 251652Z AUTO 24004KT 10SM CLR 14/03 A2966 RMK AO2 SLP047 T01390033
Loading
Personal Weather Stations






























Interactive Weather Map
Tropical Storm Tracking
New forecast layout! Learn more

10-Day Weather Forecast

Advertisements
Track Severe Weather on mobile